Time;durP1;ratioP1;P1;durP2;ratioP2;P2;SDS_P1;SDS_P2;PMS_P1;PMS_P2;Temp;Humidity;BMP_temperature;BMP_pressure;BME280_temperature;BME280_humidity;BME280_pressure;Samples;Min_cycle;Max_cycle;Signal;HPM_P1;HPM_P2
2022/01/04 00:02:06;;;;;;;31.83;16.80;;;;;;;3.49;100.00;90792.59;4991843;28;20023;-66
2022/01/04 00:04:32;;;;;;;13.70;8.07;;;;;;;3.48;100.00;90798.91;4991836;28;20033;-66
2022/01/04 00:06:58;;;;;;;16.55;9.65;;;;;;;3.36;100.00;90793.94;4991921;28;20508;-66
2022/01/04 00:09:24;;;;;;;19.83;10.40;;;;;;;3.28;100.00;90805.78;4991815;28;20806;-66
2022/01/04 00:14:15;;;;;;;22.48;10.45;;;;;;;3.13;100.00;90802.41;4991382;28;20074;-66
2022/01/04 00:16:41;;;;;;;22.33;11.35;;;;;;;3.02;100.00;90803.50;4991722;28;20041;-66
2022/01/04 00:19:07;;;;;;;16.65;9.02;;;;;;;2.86;100.00;90800.91;4991666;28;20025;-66
2022/01/04 00:21:33;;;;;;;15.63;7.95;;;;;;;2.75;100.00;90801.16;4991700;28;20093;-66
2022/01/04 00:23:58;;;;;;;11.10;6.57;;;;;;;2.61;100.00;90804.31;4991627;28;20037;-66
2022/01/04 00:26:24;;;;;;;14.57;8.05;;;;;;;2.53;100.00;90811.94;4991594;28;20030;-66
2022/01/04 00:28:50;;;;;;;16.90;9.75;;;;;;;2.56;100.00;90806.16;4991583;28;20027;-66
2022/01/04 00:31:15;;;;;;;16.25;9.40;;;;;;;2.57;100.00;90813.78;4991504;28;20034;-66
2022/01/04 00:33:41;;;;;;;18.88;10.15;;;;;;;2.64;100.00;90824.00;4991544;28;20027;-66
2022/01/04 00:36:06;;;;;;;17.95;10.68;;;;;;;2.63;100.00;90817.97;4991547;28;20038;-66
2022/01/04 00:38:32;;;;;;;18.00;10.65;;;;;;;2.39;100.00;90827.44;4991529;28;20033;-66
2022/01/04 00:40:58;;;;;;;22.88;13.32;;;;;;;2.24;100.00;90824.78;4991538;28;20027;-66
2022/01/04 00:43:24;;;;;;;25.08;13.43;;;;;;;2.22;100.00;90826.88;4991361;28;20406;-66
2022/01/04 00:45:51;;;;;;;22.48;13.65;;;;;;;2.14;100.00;90819.50;4991429;28;20121;-66
2022/01/04 00:50:43;;;;;;;23.80;13.13;;;;;;;1.95;100.00;90827.88;4994500;28;20480;-66
2022/01/04 00:53:08;;;;;;;19.30;11.57;;;;;;;2.07;100.00;90820.56;4995190;28;20034;-66
2022/01/04 00:55:34;;;;;;;20.85;11.98;;;;;;;2.13;100.00;90820.56;4995276;28;20121;-66
2022/01/04 00:58:00;;;;;;;13.68;8.75;;;;;;;2.16;100.00;90810.34;4995160;28;20068;-66
2022/01/04 01:00:27;;;;;;;10.52;6.63;;;;;;;2.40;100.00;90818.50;4995125;28;20057;-66
2022/01/04 01:02:53;;;;;;;11.20;7.15;;;;;;;2.54;100.00;90819.56;4995278;28;20030;-66
2022/01/04 01:05:19;;;;;;;13.25;6.35;;;;;;;2.56;100.00;90804.34;4994852;28;20038;-65
2022/01/04 01:07:45;;;;;;;9.20;5.43;;;;;;;2.48;100.00;90804.84;4995034;28;20069;-67
2022/01/04 01:10:42;;;;;;;7.53;4.65;;;;;;;2.45;100.00;90805.38;4994875;28;20065;-66
2022/01/04 01:13:09;;;;;;;7.85;4.95;;;;;;;2.40;100.00;90800.13;4994772;28;20031;-68
2022/01/04 01:15:35;;;;;;;6.07;4.47;;;;;;;2.48;100.00;90796.97;4994828;28;20041;-67
2022/01/04 01:18:02;;;;;;;6.97;3.85;;;;;;;2.54;100.00;90793.31;4995063;28;20065;-67
2022/01/04 01:20:27;;;;;;;7.80;4.32;;;;;;;2.64;100.00;90787.25;4994742;28;20023;-67
2022/01/04 01:22:53;;;;;;;6.97;4.55;;;;;;;2.65;100.00;90786.97;4994911;28;20026;-67
2022/01/04 01:25:20;;;;;;;8.45;5.20;;;;;;;2.71;100.00;90787.78;4994693;28;20034;-67
2022/01/04 01:27:46;;;;;;;6.97;4.20;;;;;;;2.83;100.00;90777.75;4994824;28;20041;-67
2022/01/04 01:30:12;;;;;;;8.43;4.45;;;;;;;2.82;100.00;90770.16;4994607;28;20034;-67
2022/01/04 01:32:39;;;;;;;5.03;3.90;;;;;;;2.86;100.00;90773.84;4994500;28;20034;-66
2022/01/04 01:35:06;;;;;;;6.25;3.92;;;;;;;2.84;100.00;90775.91;4994583;28;20035;-67
2022/01/04 01:37:31;;;;;;;6.55;4.13;;;;;;;2.85;100.00;90772.25;4994440;28;20522;-66
2022/01/04 01:39:57;;;;;;;8.10;4.22;;;;;;;2.78;100.00;90771.72;4994491;28;20062;-67
2022/01/04 01:42:23;;;;;;;5.47;3.97;;;;;;;2.80;100.00;90765.16;4994276;28;20542;-67
2022/01/04 01:44:49;;;;;;;6.55;4.03;;;;;;;2.80;100.00;90767.78;4994631;28;20412;-67
2022/01/04 01:47:15;;;;;;;7.95;4.93;;;;;;;2.78;100.00;90771.72;4994270;28;20033;-67
2022/01/04 01:49:40;;;;;;;5.95;4.03;;;;;;;2.74;100.00;90771.47;4994230;28;20445;-67
2022/01/04 01:52:06;;;;;;;4.75;3.80;;;;;;;2.73;100.00;90763.88;4994069;28;20382;-67
2022/01/04 01:54:32;;;;;;;6.22;3.92;;;;;;;2.74;100.00;90754.94;4994130;28;20096;-67
2022/01/04 01:56:58;;;;;;;4.85;3.60;;;;;;;2.67;100.00;90761.22;4994178;28;20065;-67
2022/01/04 01:59:23;;;;;;;5.10;3.47;;;;;;;2.69;100.00;90751.28;4994055;28;20026;-67
2022/01/04 02:01:50;;;;;;;5.82;3.78;;;;;;;2.68;100.00;90754.97;4993398;28;20033;-67
2022/01/04 02:04:15;;;;;;;6.13;3.42;;;;;;;2.67;100.00;90749.94;4993879;28;20037;-66
2022/01/04 02:06:41;;;;;;;5.07;3.35;;;;;;;2.70;100.00;90758.09;4993748;28;20413;-66
2022/01/04 02:09:07;;;;;;;4.90;3.50;;;;;;;2.63;100.00;90757.56;4993954;28;20416;-66
2022/01/04 02:11:32;;;;;;;5.65;3.60;;;;;;;2.62;100.00;90750.75;4993793;28;20489;-66
2022/01/04 02:13:59;;;;;;;5.63;3.47;;;;;;;2.56;100.00;90743.16;4993736;28;20056;-66
2022/01/04 02:16:26;;;;;;;6.78;4.00;;;;;;;2.42;100.00;90734.22;4993729;28;20019;-66
2022/01/04 02:18:58;;;;;;;6.00;4.28;;;;;;;2.42;100.00;90742.91;4993745;28;20512;-66
2022/01/04 02:21:23;;;;;;;7.05;4.40;;;;;;;2.43;100.00;90751.56;4993715;28;20022;-66
2022/01/04 02:23:49;;;;;;;6.78;4.40;;;;;;;2.33;100.00;90765.47;4993512;28;20030;-66
2022/01/04 02:26:14;;;;;;;7.72;4.35;;;;;;;2.31;100.00;90759.69;4993563;28;20038;-67
2022/01/04 02:28:41;;;;;;;6.85;3.78;;;;;;;2.42;100.00;90773.63;4993532;28;20066;-67
2022/01/04 02:31:06;;;;;;;6.93;3.88;;;;;;;2.44;100.00;90766.25;4993459;28;20037;-67
2022/01/04 02:33:32;;;;;;;4.88;3.05;;;;;;;2.52;100.00;90763.09;4993287;28;20022;-67
2022/01/04 02:35:57;;;;;;;3.40;2.83;;;;;;;2.48;100.00;90760.22;4993410;28;20034;-67
2022/01/04 02:38:23;;;;;;;4.32;3.08;;;;;;;2.35;100.00;90764.16;5008337;28;20030;-67
2022/01/04 02:40:48;;;;;;;4.97;3.47;;;;;;;2.25;100.00;90758.91;5008355;28;20134;-66
2022/01/04 02:43:14;;;;;;;4.78;3.28;;;;;;;2.19;100.00;90759.16;4993136;28;20424;-67
2022/01/04 02:45:39;;;;;;;5.45;3.33;;;;;;;2.17;100.00;90766.50;4993185;28;20034;-67
2022/01/04 02:48:05;;;;;;;4.78;3.00;;;;;;;2.03;100.00;90761.78;4993169;28;20042;-67
2022/01/04 02:50:30;;;;;;;5.40;3.60;;;;;;;1.99;100.00;90770.44;4993101;28;20066;-67
2022/01/04 02:52:56;;;;;;;5.10;3.13;;;;;;;1.97;100.00;90757.56;4992946;28;20037;-67
2022/01/04 02:55:22;;;;;;;6.30;3.63;;;;;;;2.08;100.00;90767.03;5008125;28;20501;-66
2022/01/04 02:57:47;;;;;;;5.72;3.30;;;;;;;1.96;100.00;90771.75;4992957;28;20493;-67
2022/01/04 03:00:15;;;;;;;6.75;3.53;;;;;;;2.01;100.00;90781.44;4992869;28;20029;-67
2022/01/04 03:02:41;;;;;;;6.18;2.85;;;;;;;2.09;100.00;90779.09;4992805;28;20420;-67
2022/01/04 03:05:08;;;;;;;3.70;2.80;;;;;;;2.16;100.00;90775.44;5137103;23;20054;-62
2022/01/04 03:07:34;;;;;;;4.18;2.97;;;;;;;2.14;100.00;90775.69;4992910;28;20473;-62
2022/01/04 03:09:59;;;;;;;4.15;2.95;;;;;;;2.12;100.00;90767.31;4992755;28;20113;-62
2022/01/04 03:12:25;;;;;;;3.75;2.53;;;;;;;2.21;100.00;90767.56;4992403;28;20033;-61
2022/01/04 03:14:50;;;;;;;5.55;3.33;;;;;;;2.13;100.00;90765.47;4992083;28;20500;-62
2022/01/04 03:17:16;;;;;;;5.03;3.03;;;;;;;2.10;100.00;90766.78;4992788;28;20041;-63
2022/01/04 03:19:41;;;;;;;6.05;3.58;;;;;;;2.09;100.00;90763.38;4992972;28;20120;-63
2022/01/04 03:22:07;;;;;;;7.35;4.00;;;;;;;2.10;100.00;90756.28;4992611;28;20030;-62
2022/01/04 03:24:32;;;;;;;5.53;3.53;;;;;;;2.12;100.00;90762.06;4992547;28;20034;-62
2022/01/04 03:27:00;;;;;;;6.80;4.15;;;;;;;2.14;100.00;90761.78;4992540;28;20114;-63
2022/01/04 03:29:25;;;;;;;6.05;3.22;;;;;;;2.21;100.00;90762.31;4992565;28;20415;-63
2022/01/04 03:31:52;;;;;;;6.53;3.97;;;;;;;2.17;100.00;90756.78;4992407;28;20036;-62
2022/01/04 03:34:18;;;;;;;6.47;3.40;;;;;;;2.20;100.00;90760.72;4992343;28;20030;-63
2022/01/04 03:36:44;;;;;;;4.53;3.10;;;;;;;2.19;100.00;90759.16;4992502;28;20049;-62
2022/01/04 03:39:11;;;;;;;4.75;3.13;;;;;;;2.20;100.00;90765.97;4992402;28;20484;-62
2022/01/04 03:41:39;;;;;;;5.60;2.92;;;;;;;2.28;100.00;90765.47;4992025;28;20026;-62
2022/01/04 03:44:07;;;;;;;3.45;2.80;;;;;;;2.24;100.00;90761.81;4992326;28;20037;-62
2022/01/04 03:46:33;;;;;;;3.80;2.50;;;;;;;2.27;99.28;90763.91;4992136;28;20038;-62
2022/01/04 03:48:58;;;;;;;4.63;3.08;;;;;;;2.25;99.42;90758.91;4992207;28;20092;-62
2022/01/04 03:51:24;;;;;;;4.00;2.78;;;;;;;2.25;98.92;90763.38;4992082;28;20030;-62
2022/01/04 03:53:49;;;;;;;3.08;2.20;;;;;;;2.21;98.74;90763.13;4991924;28;20034;-62
2022/01/04 03:56:15;;;;;;;5.13;2.58;;;;;;;2.23;98.97;90752.34;4991915;28;20030;-62
2022/01/04 03:58:40;;;;;;;4.68;2.72;;;;;;;2.18;99.28;90747.09;4992067;28;20041;-63
2022/01/04 04:01:06;;;;;;;4.35;3.05;;;;;;;2.13;100.00;90745.25;4992006;28;20026;-62
2022/01/04 04:03:32;;;;;;;5.32;3.13;;;;;;;2.10;100.00;90754.44;4992002;28;20566;-62
2022/01/04 04:05:57;;;;;;;4.80;3.08;;;;;;;2.09;100.00;90760.75;4991744;28;20053;-63
2022/01/04 04:08:23;;;;;;;3.15;2.72;;;;;;;2.07;100.00;90757.59;4991945;28;20026;-63
2022/01/04 04:10:48;;;;;;;3.88;2.78;;;;;;;2.13;100.00;90762.84;4991765;28;20472;-62
2022/01/04 04:13:14;;;;;;;3.65;2.80;;;;;;;2.15;100.00;90761.53;4987006;28;20022;-63
2022/01/04 04:15:43;;;;;;;2.95;2.42;;;;;;;2.05;99.96;90753.63;4991043;28;20069;-63
2022/01/04 04:18:09;;;;;;;6.13;3.40;;;;;;;2.10;99.22;90757.06;4991616;28;20105;-63
2022/01/04 04:20:36;;;;;;;5.22;2.97;;;;;;;2.09;98.88;90749.47;4991482;28;20036;-63
2022/01/04 04:23:02;;;;;;;5.50;3.92;;;;;;;2.08;98.79;90759.16;4991483;28;20515;-63
2022/01/04 04:25:28;;;;;;;8.05;4.25;;;;;;;2.12;98.19;90756.81;4993690;28;20060;-63
2022/01/04 04:27:53;;;;;;;7.30;4.28;;;;;;;2.10;97.65;90745.78;4997697;28;20481;-63
2022/01/04 04:30:19;;;;;;;9.73;5.63;;;;;;;2.13;97.34;90754.97;4997745;28;20109;-63
2022/01/04 04:32:45;;;;;;;7.97;5.20;;;;;;;2.23;96.16;90749.72;4997492;28;20117;-62
2022/01/04 04:35:11;;;;;;;4.18;3.35;;;;;;;2.23;94.33;90752.34;4997796;28;20542;-61
2022/01/04 04:37:36;;;;;;;5.50;3.28;;;;;;;2.29;93.73;90740.81;4998167;28;20033;-62
2022/01/04 04:40:03;;;;;;;10.65;5.40;;;;;;;2.32;92.99;90748.94;4998024;28;20030;-62
2022/01/04 04:42:28;;;;;;;8.82;4.72;;;;;;;2.26;93.23;90738.72;4998084;28;20026;-62
2022/01/04 04:44:54;;;;;;;3.80;2.53;;;;;;;2.29;93.00;90741.59;4998021;28;20031;-62
2022/01/04 04:47:19;;;;;;;4.40;3.20;;;;;;;2.20;93.51;90748.41;4998056;28;20484;-63
2022/01/04 04:49:45;;;;;;;5.40;3.70;;;;;;;2.17;94.58;90733.19;4997997;28;20041;-62
2022/01/04 04:52:11;;;;;;;5.95;4.20;;;;;;;2.07;96.08;90736.59;4997973;28;20034;-62
2022/01/04 04:54:36;;;;;;;5.95;4.20;;;;;;;1.94;97.70;90731.09;4997779;28;20036;-62
2022/01/04 04:57:02;;;;;;;6.30;4.50;;;;;;;1.97;98.64;90744.47;4997963;28;20026;-62
2022/01/04 04:59:28;;;;;;;6.93;5.00;;;;;;;1.92;98.88;90744.47;4997979;28;20061;-62
2022/01/04 05:01:54;;;;;;;7.47;5.25;;;;;;;2.00;98.33;90757.03;4998046;28;20471;-62
2022/01/04 05:04:19;;;;;;;11.90;5.28;;;;;;;2.01;97.69;90753.38;4997608;28;20408;-63
2022/01/04 05:06:45;;;;;;;6.03;4.07;;;;;;;2.06;96.48;90758.66;5012965;28;20064;-62
2022/01/04 05:09:11;;;;;;;6.57;4.50;;;;;;;2.04;96.25;90760.72;4997877;28;20113;-62
2022/01/04 05:11:36;;;;;;;7.95;4.30;;;;;;;2.04;96.00;90759.94;4997790;28;20061;-62
2022/01/04 05:14:02;;;;;;;8.57;4.90;;;;;;;1.96;97.01;90756.00;4994253;28;20061;-63
2022/01/04 05:16:27;;;;;;;12.25;5.65;;;;;;;1.91;98.12;90756.00;4991367;28;20118;-62
2022/01/04 05:18:54;;;;;;;13.63;6.97;;;;;;;1.87;99.21;90752.31;4996563;28;20424;-62
2022/01/04 05:21:20;;;;;;;14.55;7.85;;;;;;;1.65;100.00;90743.88;4997469;28;20057;-62
2022/01/04 05:23:45;;;;;;;20.75;11.27;;;;;;;1.65;100.00;90764.84;4997549;28;20030;-62
2022/01/04 05:26:11;;;;;;;18.60;9.10;;;;;;;1.53;100.00;90772.94;4997392;28;20107;-62
2022/01/04 05:28:38;;;;;;;17.10;8.98;;;;;;;1.43;100.00;90768.47;4997502;28;20472;-62
2022/01/04 05:31:04;;;;;;;15.00;8.43;;;;;;;1.41;100.00;90773.16;4997637;28;20030;-62
2022/01/04 05:33:30;;;;;;;16.55;8.05;;;;;;;1.44;100.00;90754.31;4996989;28;20040;-62
2022/01/04 05:35:55;;;;;;;16.92;9.23;;;;;;;1.44;100.00;90761.41;4995435;28;20121;-62
2022/01/04 05:38:21;;;;;;;24.40;11.38;;;;;;;1.41;100.00;90757.44;4994277;28;20026;-64
2022/01/04 05:40:46;;;;;;;41.65;19.70;;;;;;;1.41;100.00;90759.28;4994330;28;20093;-63
2022/01/04 05:43:13;;;;;;;26.23;12.00;;;;;;;1.42;100.00;90763.47;4994289;28;20026;-63
2022/01/04 05:45:39;;;;;;;14.60;7.10;;;;;;;1.43;100.00;90762.44;4994211;28;20504;-63
2022/01/04 05:48:05;;;;;;;17.92;7.82;;;;;;;1.52;100.00;90762.72;4993871;28;20184;-63
2022/01/04 05:50:31;;;;;;;13.25;7.60;;;;;;;1.50;100.00;90753.28;4994040;28;20505;-63
2022/01/04 05:52:57;;;;;;;17.83;9.93;;;;;;;1.50;100.00;90755.13;4994181;28;20544;-62
2022/01/04 05:55:22;;;;;;;23.33;9.13;;;;;;;1.49;100.00;90756.16;5008975;28;20517;-63
2022/01/04 05:57:48;;;;;;;20.75;8.90;;;;;;;1.41;100.00;90756.66;4994115;28;20027;-62
2022/01/04 06:00:14;;;;;;;12.93;7.35;;;;;;;1.44;100.00;90756.94;4993937;28;20027;-63
2022/01/04 06:02:40;;;;;;;18.40;7.28;;;;;;;1.59;100.00;90745.72;4993537;28;20022;-63
2022/01/04 06:05:06;;;;;;;12.05;7.03;;;;;;;1.59;100.00;90740.47;4993733;28;20053;-63
2022/01/04 06:07:32;;;;;;;17.58;6.03;;;;;;;1.67;100.00;90736.53;4993897;28;20412;-63
2022/01/04 06:09:57;;;;;;;13.70;7.22;;;;;;;1.87;99.60;90741.81;4993863;28;20030;-63
2022/01/04 06:14:58;;;;;;;7.25;3.42;;;;;;;2.03;96.79;90734.75;4993642;28;20033;-63
2022/01/04 06:17:32;;;;;;;12.20;5.05;;;;;;;2.16;94.59;90733.44;4993326;28;20089;-62
2022/01/04 06:19:59;;;;;;;9.52;5.43;;;;;;;2.32;92.21;90727.94;4993621;28;20026;-64
2022/01/04 06:22:26;;;;;;;8.45;5.20;;;;;;;2.40;90.89;90726.63;4993637;28;20034;-64
2022/01/04 06:24:53;;;;;;;8.88;5.30;;;;;;;2.51;90.07;90735.25;4993527;28;20022;-65
2022/01/04 06:27:19;;;;;;;14.63;7.10;;;;;;;2.60;89.52;90738.94;4993432;28;20412;-65
2022/01/04 06:29:45;;;;;;;12.85;7.57;;;;;;;2.55;89.73;90737.13;4993431;28;20026;-65
2022/01/04 06:32:12;;;;;;;11.27;6.95;;;;;;;2.71;89.53;90745.75;4992888;28;20030;-66
2022/01/04 06:34:38;;;;;;;16.35;7.93;;;;;;;2.79;88.81;90752.28;4993290;28;20089;-66
2022/01/04 06:37:05;;;;;;;16.27;9.95;;;;;;;2.98;87.98;90756.72;4993369;28;20036;-66
2022/01/04 06:39:31;;;;;;;11.05;7.32;;;;;;;3.08;86.64;90748.03;4993196;28;20034;-66
2022/01/04 06:41:57;;;;;;;16.02;8.10;;;;;;;3.09;86.25;90733.81;4993178;28;20035;-65
2022/01/04 06:44:22;;;;;;;16.90;8.57;;;;;;;3.25;85.57;90747.72;4993148;28;20344;-66
2022/01/04 06:46:48;;;;;;;8.50;5.10;;;;;;;3.36;84.90;90754.50;4992786;28;20038;-65
2022/01/04 06:49:16;;;;;;;19.55;12.23;;;;;;;3.39;84.49;90751.34;4992974;28;20439;-65
2022/01/04 06:51:43;;;;;;;16.65;8.48;;;;;;;3.45;84.91;90755.50;4993129;28;20026;-65
2022/01/04 06:54:10;;;;;;;10.00;6.18;;;;;;;3.40;85.66;90752.13;4992979;28;20034;-65
2022/01/04 06:56:37;;;;;;;19.48;9.50;;;;;;;3.41;86.99;90741.34;4992951;28;20038;-65
2022/01/04 06:59:04;;;;;;;27.48;15.38;;;;;;;3.60;87.07;90746.75;4992984;28;20026;-64
2022/01/04 07:01:30;;;;;;;37.80;21.38;;;;;;;3.59;87.38;90750.44;4992500;28;20504;-65
2022/01/04 07:03:55;;;;;;;21.83;11.60;;;;;;;3.49;89.12;90742.63;4992632;28;20092;-64
2022/01/04 07:06:21;;;;;;;23.35;15.25;;;;;;;3.55;89.78;90752.06;4992585;28;20046;-65
2022/01/04 07:08:47;;;;;;;41.92;19.85;;;;;;;3.65;89.44;90745.97;4992723;28;20032;-65
2022/01/04 07:11:13;;;;;;;35.40;19.60;;;;;;;3.50;89.58;90744.19;4992598;28;20023;-64
2022/01/04 07:13:39;;;;;;;34.92;18.08;;;;;;;3.47;90.00;90737.63;4992578;28;20123;-65
2022/01/04 07:16:05;;;;;;;22.45;12.25;;;;;;;3.71;89.72;90729.88;4992174;28;20039;-65
2022/01/04 07:18:30;;;;;;;37.88;21.15;;;;;;;4.10;84.67;90735.19;4992537;28;20022;-65
2022/01/04 07:20:56;;;;;;;61.67;35.25;;;;;;;4.20;82.83;90729.81;4992540;28;20045;-65
2022/01/04 07:23:22;;;;;;;56.55;31.25;;;;;;;4.48;81.23;90741.47;4992365;28;20037;-65
2022/01/04 07:25:48;;;;;;;53.65;29.40;;;;;;;5.00;78.44;90747.84;4992393;28;20035;-64
2022/01/04 07:28:14;;;;;;;41.83;23.05;;;;;;;5.46;74.26;90739.44;4992363;28;20176;-65
2022/01/04 07:30:40;;;;;;;40.72;22.13;;;;;;;5.99;71.08;90731.41;4992301;28;20038;-65
2022/01/04 07:33:05;;;;;;;48.38;23.48;;;;;;;6.60;70.46;90735.78;4992058;28;20500;-65
2022/01/04 07:35:31;;;;;;;28.27;16.70;;;;;;;6.63;67.41;90748.44;4992179;28;20038;-65
2022/01/04 07:37:56;;;;;;;26.50;15.27;;;;;;;7.42;65.39;90738.59;4992226;28;20038;-65
2022/01/04 07:40:22;;;;;;;76.32;44.40;;;;;;;7.80;63.60;90746.34;4992173;28;20530;-65
2022/01/04 07:42:48;;;;;;;30.35;19.00;;;;;;;7.46;62.99;90742.22;4992132;28;20034;-65
2022/01/04 07:45:14;;;;;;;28.55;19.17;;;;;;;6.89;64.33;90746.16;4991906;28;20040;-65
2022/01/04 07:47:41;;;;;;;26.23;15.15;;;;;;;6.20;65.78;90742.47;4991742;28;20447;-65
2022/01/04 07:50:09;;;;;;;21.02;13.45;;;;;;;7.13;64.22;90738.09;4991917;28;20522;-65
2022/01/04 07:52:35;;;;;;;20.60;12.73;;;;;;;7.78;61.58;90722.81;4991948;28;20060;-65
2022/01/04 07:55:02;;;;;;;43.00;24.50;;;;;;;9.06;58.77;90741.94;5006958;28;20038;-65
2022/01/04 07:57:27;;;;;;;15.40;9.30;;;;;;;10.47;55.47;90738.38;4991866;28;20045;-65
2022/01/04 07:59:53;;;;;;;7.85;5.60;;;;;;;11.05;53.35;90737.13;4991303;28;20019;-65
2022/01/04 08:02:18;;;;;;;7.47;5.15;;;;;;;10.73;53.17;90728.53;4991383;28;20105;-64
2022/01/04 08:04:44;;;;;;;9.32;7.35;;;;;;;10.76;53.19;90735.09;4991395;28;20505;-64
2022/01/04 08:07:09;;;;;;;12.18;8.75;;;;;;;11.25;52.33;90727.69;4991693;28;20042;-65
2022/01/04 08:09:35;;;;;;;11.18;7.28;;;;;;;11.76;51.10;90725.94;4991528;28;20034;-65
2022/01/04 08:12:00;;;;;;;9.23;7.70;;;;;;;13.12;48.52;90729.97;4991584;28;20046;-65
2022/01/04 08:14:26;;;;;;;13.00;10.15;;;;;;;14.17;45.61;90712.44;4991549;28;20140;-65
2022/01/04 08:16:53;;;;;;;13.70;9.23;;;;;;;12.88;46.46;90728.72;4991231;28;20050;-64
2022/01/04 08:19:18;;;;;;;11.70;7.85;;;;;;;11.89;47.67;90728.44;4991511;28;20129;-64
2022/01/04 08:21:44;;;;;;;15.55;9.45;;;;;;;11.32;48.23;90726.09;4991640;28;20556;-65
2022/01/04 08:24:10;;;;;;;13.20;7.65;;;;;;;10.46;49.27;90711.00;4991438;28;20054;-64
2022/01/04 08:26:36;;;;;;;12.88;8.55;;;;;;;9.88;50.90;90722.78;4991467;28;20046;-65
2022/01/04 08:29:02;;;;;;;10.32;6.63;;;;;;;10.01;50.47;90730.94;4991555;28;20030;-65
2022/01/04 08:31:27;;;;;;;10.32;6.53;;;;;;;10.41;50.19;90723.66;4991029;28;20106;-65
2022/01/04 08:33:53;;;;;;;13.05;7.00;;;;;;;10.68;49.80;90719.91;4991336;28;20544;-65
2022/01/04 08:36:20;;;;;;;16.80;10.40;;;;;;;12.22;47.72;90722.47;4991405;28;20034;-65
2022/01/04 08:38:46;;;;;;;15.52;11.02;;;;;;;12.36;46.91;90706.22;4991395;28;20062;-65
2022/01/04 08:41:11;;;;;;;21.40;13.07;;;;;;;12.40;46.80;90704.47;4991421;28;20046;-65
2022/01/04 08:43:37;;;;;;;18.63;12.75;;;;;;;13.49;44.65;90710.28;4991464;28;20039;-66
2022/01/04 08:46:02;;;;;;;23.73;13.98;;;;;;;13.64;43.81;90705.41;4990951;28;20045;-65
2022/01/04 08:48:28;;;;;;;27.67;17.60;;;;;;;13.95;43.91;90707.56;4991411;28;20062;-65
2022/01/04 08:50:53;;;;;;;52.42;17.98;;;;;;;14.04;44.92;90709.00;5006316;28;20043;-66
2022/01/04 08:53:19;;;;;;;11.60;5.82;;;;;;;15.23;42.65;90697.97;4991387;28;20069;-65
2022/01/04 08:55:47;;;;;;;13.82;7.38;;;;;;;15.69;42.00;90698.41;4991331;28;20042;-65
2022/01/04 08:58:13;;;;;;;22.35;9.68;;;;;;;13.91;44.57;90699.44;4991296;28;20030;-65
2022/01/04 09:00:38;;;;;;;17.58;10.27;;;;;;;13.92;45.40;90692.97;4990903;28;20433;-65
2022/01/04 09:03:04;;;;;;;29.13;14.25;;;;;;;14.18;45.27;90687.25;4991402;28;20562;-65
2022/01/04 09:05:30;;;;;;;27.63;11.15;;;;;;;14.27;45.63;90689.81;4991026;28;20661;-65
2022/01/04 09:07:55;;;;;;;15.90;6.70;;;;;;;14.23;45.72;90686.25;4991181;28;20045;-65
2022/01/04 09:10:21;;;;;;;29.70;10.48;;;;;;;14.92;45.65;90677.22;4991129;28;20045;-65
2022/01/04 09:13:11;;;;;;;11.85;7.30;;;;;;;15.43;44.69;90674.72;4993985;28;20120;-65
2022/01/04 09:20:49;;;;;;;9.50;5.55;;;;;;;17.57;40.56;90678.38;4994772;28;20081;-65
2022/01/04 09:23:20;;;;;;;9.07;4.70;;;;;;;17.51;40.24;90673.63;4994736;28;20074;-64
2022/01/04 09:25:48;;;;;;;7.57;5.05;;;;;;;17.77;39.79;90665.69;4994724;28;20078;-65
2022/01/04 09:28:14;;;;;;;20.05;5.80;;;;;;;17.04;42.29;90655.84;4994506;28;20042;-64
2022/01/04 09:30:43;;;;;;;15.30;9.55;;;;;;;18.01;39.71;90664.56;4984894;28;20853;-63
2022/01/04 09:33:09;;;;;;;16.17;9.27;;;;;;;19.00;39.21;90653.69;4985079;28;20471;-64
2022/01/04 09:35:36;;;;;;;20.55;11.82;;;;;;;18.96;38.80;90652.88;4984368;28;20031;-64
2022/01/04 09:38:04;;;;;;;7.57;4.70;;;;;;;19.85;37.95;90654.66;4983041;28;20102;-64
2022/01/04 09:40:30;;;;;;;65.28;7.72;;;;;;;20.83;37.16;90646.94;4984541;28;20623;-64
2022/01/04 09:42:57;;;;;;;9.55;5.60;;;;;;;21.82;35.50;90646.59;4982578;28;20038;-64
2022/01/04 09:45:23;;;;;;;5.88;4.07;;;;;;;18.82;39.40;90631.91;4985659;28;20038;-65
2022/01/04 09:47:48;;;;;;;5.90;4.00;;;;;;;18.63;40.22;90632.81;4988577;28;20038;-64
2022/01/04 09:50:14;;;;;;;14.07;5.40;;;;;;;19.63;38.80;90636.72;4975400;28;20043;-64
2022/01/04 09:52:46;;;;;;;7.32;4.43;;;;;;;20.83;37.01;90641.53;4974760;28;20527;-64
2022/01/04 09:55:14;;;;;;;25.80;5.77;;;;;;;20.53;37.09;90639.81;4974914;28;20054;-64
2022/01/04 09:57:43;;;;;;;7.53;4.30;;;;;;;20.25;37.18;90639.56;4974632;28;20035;-64
2022/01/04 10:00:14;;;;;;;9.15;5.35;;;;;;;21.22;36.21;90622.78;4974402;28;20038;-64
2022/01/04 10:02:41;;;;;;;13.10;5.82;;;;;;;20.83;37.25;90609.88;4974463;28;20577;-65
2022/01/04 10:05:17;;;;;;;9.30;4.97;;;;;;;20.80;36.88;90607.91;4974299;28;20067;-64
2022/01/04 10:07:45;;;;;;;7.88;4.10;;;;;;;20.67;36.17;90611.31;4974795;28;20038;-64
2022/01/04 10:10:13;;;;;;;47.08;20.13;;;;;;;22.31;34.27;90602.53;4974434;28;20054;-65
2022/01/04 10:12:57;;;;;;;15.35;8.95;;;;;;;21.92;33.92;90594.34;4974256;28;20035;-63
2022/01/04 10:15:41;;;;;;;7.80;4.05;;;;;;;20.77;34.66;90588.97;4973996;28;20038;-63
2022/01/04 10:18:12;;;;;;;6.70;5.22;;;;;;;21.56;33.99;90596.25;4974334;28;20046;-64
2022/01/04 10:20:42;;;;;;;15.50;5.07;;;;;;;22.78;32.64;90594.34;4974114;28;20034;-64
2022/01/04 10:23:13;;;;;;;10.32;5.70;;;;;;;21.60;34.70;90586.19;4973756;28;20073;-65
2022/01/04 10:25:39;;;;;;;183.55;12.73;;;;;;;21.72;34.41;90583.13;4974014;28;20047;-65
2022/01/04 10:28:05;;;;;;;5.25;3.55;;;;;;;22.21;34.77;90575.44;4974197;28;20117;-65
2022/01/04 10:30:30;;;;;;;11.02;6.57;;;;;;;23.71;32.21;90564.94;4973872;28;20501;-65
2022/01/04 10:33:25;;;;;;;88.00;10.02;;;;;;;24.49;31.32;90570.56;4974115;28;20570;-65
2022/01/04 10:35:54;;;;;;;6.72;3.75;;;;;;;24.22;29.97;90560.66;4971260;28;20054;-65
2022/01/04 10:38:24;;;;;;;238.82;160.73;;;;;;;23.91;31.60;90560.50;4974023;28;20095;-65
2022/01/04 10:40:51;;;;;;;140.48;13.60;;;;;;;22.75;31.68;90549.78;4973808;28;20042;-65
2022/01/04 10:43:19;;;;;;;34.28;6.32;;;;;;;20.88;34.97;90549.25;4973782;28;20728;-65
2022/01/04 10:45:47;;;;;;;13.68;3.97;;;;;;;19.89;34.83;90535.94;4973336;28;20130;-65
2022/01/04 10:48:23;;;;;;;17.02;5.75;;;;;;;22.74;32.30;90536.63;4973645;28;20058;-63
2022/01/04 10:51:04;;;;;;;13.60;4.22;;;;;;;21.01;34.29;90545.06;4973589;28;20531;-63
2022/01/04 10:53:51;;;;;;;13.10;4.40;;;;;;;21.74;33.02;90536.72;4973540;28;20174;-66
2022/01/04 10:56:22;;;;;;;10.05;3.47;;;;;;;22.25;32.38;90539.06;4988505;28;20050;-64
2022/01/04 10:58:50;;;;;;;17.63;4.95;;;;;;;22.80;32.47;90533.13;4973107;28;20129;-63
2022/01/04 11:01:20;;;;;;;20.02;11.00;;;;;;;23.18;31.66;90527.94;4973442;28;20135;-64
2022/01/04 11:03:53;;;;;;;34.63;16.42;;;;;;;23.04;31.58;90526.09;4973374;28;20074;-64
2022/01/04 11:06:36;;;;;;;28.08;12.20;;;;;;;22.41;32.63;90527.81;4973225;28;20129;-64
2022/01/04 11:09:04;;;;;;;22.98;12.32;;;;;;;22.57;31.95;90521.97;4973335;28;20039;-64
2022/01/04 11:11:30;;;;;;;34.45;17.27;;;;;;;22.87;32.21;90521.47;4973323;28;20039;-64
2022/01/04 11:13:55;;;;;;;16.65;11.65;;;;;;;22.68;31.75;90515.31;4972876;28;20129;-66
2022/01/04 11:16:23;;;;;;;12.15;9.23;;;;;;;22.22;32.89;90520.84;4973295;28;20097;-63
2022/01/04 11:18:52;;;;;;;9.75;5.72;;;;;;;22.65;31.58;90515.34;4973457;28;20042;-64
2022/01/04 11:21:34;;;;;;;50.67;7.03;;;;;;;21.72;33.39;90518.16;4973095;28;20077;-64
2022/01/04 11:24:03;;;;;;;10.20;4.03;;;;;;;21.28;34.46;90515.00;4973029;28;20046;-66
2022/01/04 11:26:29;;;;;;;12.38;5.40;;;;;;;23.78;30.03;90502.38;4973060;28;20468;-66
2022/01/04 11:28:56;;;;;;;74.53;10.23;;;;;;;23.79;30.53;90503.94;4972635;28;20030;-65
2022/01/04 11:31:41;;;;;;;58.30;28.45;;;;;;;22.07;31.97;90503.06;4972924;28;20031;-65
2022/01/04 11:34:06;;;;;;;74.15;54.25;;;;;;;21.19;34.18;90509.94;4971935;28;20405;-65
2022/01/04 11:36:39;;;;;;;21.63;7.20;;;;;;;21.92;33.53;90509.63;4972709;28;20105;-65
2022/01/04 11:39:25;;;;;;;9.85;3.83;;;;;;;20.72;33.71;90506.31;4972879;28;20066;-65
2022/01/04 11:41:51;;;;;;;34.35;6.18;;;;;;;20.14;35.61;90498.28;4972227;28;20099;-65